sensor_id;sensor_type;location;lat;lon;timestamp;P1;durP1;ratioP1;P2;durP2;ratioP2
30617;SDS011;17384;51.214;9.202;2023-08-06T00:01:11;24.63;;;8.48;;
30617;SDS011;17384;51.214;9.202;2023-08-06T00:03:37;13.80;;;9.07;;
30617;SDS011;17384;51.214;9.202;2023-08-06T00:06:04;11.40;;;9.00;;
30617;SDS011;17384;51.214;9.202;2023-08-06T00:08:30;13.93;;;9.57;;
30617;SDS011;17384;51.214;9.202;2023-08-06T00:10:55;17.05;;;9.38;;
30617;SDS011;17384;51.214;9.202;2023-08-06T00:13:21;13.38;;;8.55;;
30617;SDS011;17384;51.214;9.202;2023-08-06T00:15:46;12.70;;;8.90;;
30617;SDS011;17384;51.214;9.202;2023-08-06T00:18:12;11.95;;;8.75;;
30617;SDS011;17384;51.214;9.202;2023-08-06T00:20:40;10.95;;;7.22;;
30617;SDS011;17384;51.214;9.202;2023-08-06T00:23:09;9.75;;;7.88;;
30617;SDS011;17384;51.214;9.202;2023-08-06T00:25:34;12.40;;;7.97;;
30617;SDS011;17384;51.214;9.202;2023-08-06T00:27:59;8.05;;;7.22;;
30617;SDS011;17384;51.214;9.202;2023-08-06T00:30:25;10.63;;;8.30;;
30617;SDS011;17384;51.214;9.202;2023-08-06T00:32:50;11.93;;;7.63;;
30617;SDS011;17384;51.214;9.202;2023-08-06T00:35:16;8.90;;;7.00;;
30617;SDS011;17384;51.214;9.202;2023-08-06T00:37:41;9.43;;;7.05;;
30617;SDS011;17384;51.214;9.202;2023-08-06T00:40:07;9.68;;;6.65;;
30617;SDS011;17384;51.214;9.202;2023-08-06T00:42:33;9.48;;;7.13;;
30617;SDS011;17384;51.214;9.202;2023-08-06T00:45:00;10.95;;;6.40;;
30617;SDS011;17384;51.214;9.202;2023-08-06T00:47:26;10.25;;;6.50;;
30617;SDS011;17384;51.214;9.202;2023-08-06T00:49:51;14.68;;;7.22;;
30617;SDS011;17384;51.214;9.202;2023-08-06T00:52:17;9.10;;;5.70;;
30617;SDS011;17384;51.214;9.202;2023-08-06T00:54:42;10.98;;;5.95;;
30617;SDS011;17384;51.214;9.202;2023-08-06T00:57:08;6.45;;;5.40;;
30617;SDS011;17384;51.214;9.202;2023-08-06T00:59:34;6.93;;;6.22;;
30617;SDS011;17384;51.214;9.202;2023-08-06T01:02:00;7.53;;;5.95;;
30617;SDS011;17384;51.214;9.202;2023-08-06T01:04:25;8.48;;;5.85;;
30617;SDS011;17384;51.214;9.202;2023-08-06T01:12:34;8.45;;;5.35;;
30617;SDS011;17384;51.214;9.202;2023-08-06T01:15:07;9.75;;;6.25;;
30617;SDS011;17384;51.214;9.202;2023-08-06T01:17:54;12.15;;;6.43;;
30617;SDS011;17384;51.214;9.202;2023-08-06T01:20:20;8.38;;;5.82;;
30617;SDS011;17384;51.214;9.202;2023-08-06T01:22:46;9.43;;;6.35;;
30617;SDS011;17384;51.214;9.202;2023-08-06T01:25:12;6.97;;;6.13;;
30617;SDS011;17384;51.214;9.202;2023-08-06T01:27:46;7.20;;;6.45;;
30617;SDS011;17384;51.214;9.202;2023-08-06T01:30:20;13.20;;;6.20;;
30617;SDS011;17384;51.214;9.202;2023-08-06T01:32:53;7.82;;;6.88;;
30617;SDS011;17384;51.214;9.202;2023-08-06T01:35:25;10.30;;;6.80;;
30617;SDS011;17384;51.214;9.202;2023-08-06T01:37:52;18.15;;;6.90;;
30617;SDS011;17384;51.214;9.202;2023-08-06T01:40:18;9.05;;;7.53;;
30617;SDS011;17384;51.214;9.202;2023-08-06T01:42:43;13.95;;;7.47;;
30617;SDS011;17384;51.214;9.202;2023-08-06T01:45:09;19.10;;;8.43;;
30617;SDS011;17384;51.214;9.202;2023-08-06T01:47:35;15.50;;;8.07;;
30617;SDS011;17384;51.214;9.202;2023-08-06T01:50:01;10.60;;;8.35;;
30617;SDS011;17384;51.214;9.202;2023-08-06T01:52:27;11.63;;;8.30;;
30617;SDS011;17384;51.214;9.202;2023-08-06T01:54:53;13.90;;;8.60;;
30617;SDS011;17384;51.214;9.202;2023-08-06T01:57:18;13.02;;;8.48;;
30617;SDS011;17384;51.214;9.202;2023-08-06T01:59:44;18.52;;;10.00;;
30617;SDS011;17384;51.214;9.202;2023-08-06T02:02:09;17.42;;;9.45;;
30617;SDS011;17384;51.214;9.202;2023-08-06T02:04:35;12.32;;;9.77;;
30617;SDS011;17384;51.214;9.202;2023-08-06T02:07:00;12.60;;;9.00;;
30617;SDS011;17384;51.214;9.202;2023-08-06T02:09:26;15.30;;;9.90;;
30617;SDS011;17384;51.214;9.202;2023-08-06T02:11:51;13.10;;;10.13;;
30617;SDS011;17384;51.214;9.202;2023-08-06T02:14:16;14.57;;;9.65;;
30617;SDS011;17384;51.214;9.202;2023-08-06T02:16:42;15.32;;;10.75;;
30617;SDS011;17384;51.214;9.202;2023-08-06T02:19:07;15.43;;;9.88;;
30617;SDS011;17384;51.214;9.202;2023-08-06T02:21:33;14.15;;;9.98;;
30617;SDS011;17384;51.214;9.202;2023-08-06T02:23:58;13.75;;;8.57;;
30617;SDS011;17384;51.214;9.202;2023-08-06T02:26:24;11.98;;;9.93;;
30617;SDS011;17384;51.214;9.202;2023-08-06T02:28:49;15.40;;;10.07;;
30617;SDS011;17384;51.214;9.202;2023-08-06T02:31:15;11.85;;;9.68;;
30617;SDS011;17384;51.214;9.202;2023-08-06T02:33:40;15.20;;;10.80;;
30617;SDS011;17384;51.214;9.202;2023-08-06T02:36:05;11.98;;;9.85;;
30617;SDS011;17384;51.214;9.202;2023-08-06T02:38:31;12.57;;;9.70;;
30617;SDS011;17384;51.214;9.202;2023-08-06T02:40:57;13.13;;;10.57;;
30617;SDS011;17384;51.214;9.202;2023-08-06T02:43:22;13.48;;;9.65;;
30617;SDS011;17384;51.214;9.202;2023-08-06T02:45:48;16.08;;;10.40;;
30617;SDS011;17384;51.214;9.202;2023-08-06T02:48:13;17.55;;;10.00;;
30617;SDS011;17384;51.214;9.202;2023-08-06T02:50:42;15.27;;;10.65;;
30617;SDS011;17384;51.214;9.202;2023-08-06T02:53:08;14.65;;;10.00;;
30617;SDS011;17384;51.214;9.202;2023-08-06T02:55:33;12.52;;;10.43;;
30617;SDS011;17384;51.214;9.202;2023-08-06T02:58:02;11.63;;;9.75;;
30617;SDS011;17384;51.214;9.202;2023-08-06T03:00:28;15.95;;;10.32;;
30617;SDS011;17384;51.214;9.202;2023-08-06T03:02:54;15.60;;;10.52;;
30617;SDS011;17384;51.214;9.202;2023-08-06T03:05:20;11.52;;;9.38;;
30617;SDS011;17384;51.214;9.202;2023-08-06T03:07:46;17.98;;;9.88;;
30617;SDS011;17384;51.214;9.202;2023-08-06T03:10:12;11.32;;;9.15;;
30617;SDS011;17384;51.214;9.202;2023-08-06T03:12:38;14.10;;;9.15;;
30617;SDS011;17384;51.214;9.202;2023-08-06T03:15:03;19.10;;;9.57;;
30617;SDS011;17384;51.214;9.202;2023-08-06T03:17:29;13.48;;;9.30;;
30617;SDS011;17384;51.214;9.202;2023-08-06T03:19:55;12.48;;;9.52;;
30617;SDS011;17384;51.214;9.202;2023-08-06T03:22:21;18.15;;;9.93;;
30617;SDS011;17384;51.214;9.202;2023-08-06T03:24:49;14.90;;;10.13;;
30617;SDS011;17384;51.214;9.202;2023-08-06T03:27:16;14.98;;;10.32;;
30617;SDS011;17384;51.214;9.202;2023-08-06T03:29:42;15.10;;;9.00;;
30617;SDS011;17384;51.214;9.202;2023-08-06T03:32:07;16.27;;;9.60;;
30617;SDS011;17384;51.214;9.202;2023-08-06T03:34:33;11.40;;;9.45;;
30617;SDS011;17384;51.214;9.202;2023-08-06T03:36:58;14.48;;;9.90;;
30617;SDS011;17384;51.214;9.202;2023-08-06T03:39:24;10.38;;;9.27;;
30617;SDS011;17384;51.214;9.202;2023-08-06T03:41:49;20.90;;;10.90;;
30617;SDS011;17384;51.214;9.202;2023-08-06T03:44:15;16.98;;;11.05;;
30617;SDS011;17384;51.214;9.202;2023-08-06T03:46:40;14.80;;;10.57;;
30617;SDS011;17384;51.214;9.202;2023-08-06T03:49:06;16.20;;;10.63;;
30617;SDS011;17384;51.214;9.202;2023-08-06T03:51:31;14.48;;;10.25;;
30617;SDS011;17384;51.214;9.202;2023-08-06T03:53:57;11.05;;;8.98;;
30617;SDS011;17384;51.214;9.202;2023-08-06T03:56:22;17.05;;;9.48;;
30617;SDS011;17384;51.214;9.202;2023-08-06T03:58:48;23.20;;;10.27;;
30617;SDS011;17384;51.214;9.202;2023-08-06T04:01:13;14.38;;;9.82;;
30617;SDS011;17384;51.214;9.202;2023-08-06T04:03:39;13.80;;;9.77;;
30617;SDS011;17384;51.214;9.202;2023-08-06T04:06:06;15.52;;;10.15;;
30617;SDS011;17384;51.214;9.202;2023-08-06T04:08:32;14.32;;;9.23;;
30617;SDS011;17384;51.214;9.202;2023-08-06T04:10:58;22.48;;;9.32;;
30617;SDS011;17384;51.214;9.202;2023-08-06T04:13:23;12.18;;;9.13;;
30617;SDS011;17384;51.214;9.202;2023-08-06T04:15:49;13.10;;;9.15;;
30617;SDS011;17384;51.214;9.202;2023-08-06T04:18:14;13.50;;;8.60;;
30617;SDS011;17384;51.214;9.202;2023-08-06T04:20:44;15.60;;;9.27;;
30617;SDS011;17384;51.214;9.202;2023-08-06T04:23:14;16.40;;;9.57;;
30617;SDS011;17384;51.214;9.202;2023-08-06T04:25:40;12.63;;;8.93;;
30617;SDS011;17384;51.214;9.202;2023-08-06T04:28:06;11.30;;;9.07;;
30617;SDS011;17384;51.214;9.202;2023-08-06T04:30:32;13.68;;;9.35;;
30617;SDS011;17384;51.214;9.202;2023-08-06T04:32:58;12.57;;;7.93;;
30617;SDS011;17384;51.214;9.202;2023-08-06T04:35:23;13.65;;;8.77;;
30617;SDS011;17384;51.214;9.202;2023-08-06T04:37:49;13.93;;;9.07;;
30617;SDS011;17384;51.214;9.202;2023-08-06T04:40:14;12.07;;;8.50;;
30617;SDS011;17384;51.214;9.202;2023-08-06T04:42:40;11.68;;;9.07;;
30617;SDS011;17384;51.214;9.202;2023-08-06T04:45:05;15.15;;;8.95;;
30617;SDS011;17384;51.214;9.202;2023-08-06T04:47:31;15.02;;;9.40;;
30617;SDS011;17384;51.214;9.202;2023-08-06T04:49:57;13.85;;;8.85;;
30617;SDS011;17384;51.214;9.202;2023-08-06T04:52:22;14.85;;;8.98;;
30617;SDS011;17384;51.214;9.202;2023-08-06T04:54:48;14.18;;;9.52;;
30617;SDS011;17384;51.214;9.202;2023-08-06T04:57:13;17.55;;;9.30;;
30617;SDS011;17384;51.214;9.202;2023-08-06T04:59:39;12.00;;;8.63;;
30617;SDS011;17384;51.214;9.202;2023-08-06T05:02:04;9.70;;;8.35;;
30617;SDS011;17384;51.214;9.202;2023-08-06T05:04:30;13.57;;;8.50;;
30617;SDS011;17384;51.214;9.202;2023-08-06T05:06:55;12.68;;;8.18;;
30617;SDS011;17384;51.214;9.202;2023-08-06T05:09:20;9.75;;;8.05;;
30617;SDS011;17384;51.214;9.202;2023-08-06T05:11:46;9.43;;;7.60;;
30617;SDS011;17384;51.214;9.202;2023-08-06T05:14:12;12.60;;;7.35;;
30617;SDS011;17384;51.214;9.202;2023-08-06T05:16:38;13.73;;;7.68;;
30617;SDS011;17384;51.214;9.202;2023-08-06T05:19:03;13.18;;;8.32;;
30617;SDS011;17384;51.214;9.202;2023-08-06T05:21:29;13.80;;;8.95;;
30617;SDS011;17384;51.214;9.202;2023-08-06T05:23:54;12.43;;;8.55;;
30617;SDS011;17384;51.214;9.202;2023-08-06T05:26:20;9.95;;;8.90;;
30617;SDS011;17384;51.214;9.202;2023-08-06T05:28:45;11.38;;;7.90;;
30617;SDS011;17384;51.214;9.202;2023-08-06T05:31:11;10.90;;;7.88;;
30617;SDS011;17384;51.214;9.202;2023-08-06T05:33:37;10.25;;;8.20;;
30617;SDS011;17384;51.214;9.202;2023-08-06T05:36:02;10.45;;;8.02;;
30617;SDS011;17384;51.214;9.202;2023-08-06T05:38:29;9.30;;;8.00;;
30617;SDS011;17384;51.214;9.202;2023-08-06T05:40:55;8.65;;;7.18;;
30617;SDS011;17384;51.214;9.202;2023-08-06T05:43:21;9.43;;;7.00;;
30617;SDS011;17384;51.214;9.202;2023-08-06T05:45:48;10.32;;;7.30;;
30617;SDS011;17384;51.214;9.202;2023-08-06T05:48:14;35.22;;;8.65;;
30617;SDS011;17384;51.214;9.202;2023-08-06T05:50:40;8.25;;;6.93;;
30617;SDS011;17384;51.214;9.202;2023-08-06T05:53:06;9.30;;;6.45;;
30617;SDS011;17384;51.214;9.202;2023-08-06T05:55:31;8.82;;;7.03;;
30617;SDS011;17384;51.214;9.202;2023-08-06T05:57:58;8.43;;;6.35;;
30617;SDS011;17384;51.214;9.202;2023-08-06T06:00:24;8.73;;;6.60;;
30617;SDS011;17384;51.214;9.202;2023-08-06T06:02:49;11.35;;;6.47;;
30617;SDS011;17384;51.214;9.202;2023-08-06T06:05:15;8.70;;;5.88;;
30617;SDS011;17384;51.214;9.202;2023-08-06T06:07:40;12.73;;;6.38;;
30617;SDS011;17384;51.214;9.202;2023-08-06T06:10:06;10.02;;;6.05;;
30617;SDS011;17384;51.214;9.202;2023-08-06T06:12:32;8.98;;;6.15;;
30617;SDS011;17384;51.214;9.202;2023-08-06T06:14:57;10.10;;;6.57;;
30617;SDS011;17384;51.214;9.202;2023-08-06T06:17:23;10.98;;;6.80;;
30617;SDS011;17384;51.214;9.202;2023-08-06T06:19:48;8.13;;;6.30;;
30617;SDS011;17384;51.214;9.202;2023-08-06T06:22:14;8.93;;;7.13;;
30617;SDS011;17384;51.214;9.202;2023-08-06T06:24:39;9.48;;;6.78;;
30617;SDS011;17384;51.214;9.202;2023-08-06T06:27:05;17.15;;;6.68;;
30617;SDS011;17384;51.214;9.202;2023-08-06T06:29:31;9.88;;;6.10;;
30617;SDS011;17384;51.214;9.202;2023-08-06T06:31:56;9.32;;;6.80;;
30617;SDS011;17384;51.214;9.202;2023-08-06T06:34:21;9.80;;;7.07;;
30617;SDS011;17384;51.214;9.202;2023-08-06T06:36:47;8.52;;;7.00;;
30617;SDS011;17384;51.214;9.202;2023-08-06T06:39:13;9.40;;;6.80;;
30617;SDS011;17384;51.214;9.202;2023-08-06T06:41:38;11.25;;;7.45;;
30617;SDS011;17384;51.214;9.202;2023-08-06T06:44:04;14.02;;;7.47;;
30617;SDS011;17384;51.214;9.202;2023-08-06T06:46:30;11.95;;;7.53;;
30617;SDS011;17384;51.214;9.202;2023-08-06T06:48:55;8.05;;;7.07;;
30617;SDS011;17384;51.214;9.202;2023-08-06T06:51:21;14.52;;;6.93;;
30617;SDS011;17384;51.214;9.202;2023-08-06T06:53:46;13.88;;;6.60;;
30617;SDS011;17384;51.214;9.202;2023-08-06T06:56:12;9.57;;;6.15;;
30617;SDS011;17384;51.214;9.202;2023-08-06T06:58:37;9.20;;;6.80;;
30617;SDS011;17384;51.214;9.202;2023-08-06T07:01:04;7.75;;;6.65;;
30617;SDS011;17384;51.214;9.202;2023-08-06T07:03:30;6.60;;;5.90;;
30617;SDS011;17384;51.214;9.202;2023-08-06T07:05:58;8.27;;;5.53;;
30617;SDS011;17384;51.214;9.202;2023-08-06T07:08:24;9.30;;;5.68;;
30617;SDS011;17384;51.214;9.202;2023-08-06T07:10:50;8.73;;;5.53;;
30617;SDS011;17384;51.214;9.202;2023-08-06T07:13:15;8.43;;;4.88;;
30617;SDS011;17384;51.214;9.202;2023-08-06T07:15:44;8.95;;;5.88;;
30617;SDS011;17384;51.214;9.202;2023-08-06T07:18:13;7.97;;;4.95;;
30617;SDS011;17384;51.214;9.202;2023-08-06T07:20:39;9.25;;;4.65;;
30617;SDS011;17384;51.214;9.202;2023-08-06T07:23:05;8.00;;;5.20;;
30617;SDS011;17384;51.214;9.202;2023-08-06T07:25:31;8.13;;;4.60;;
30617;SDS011;17384;51.214;9.202;2023-08-06T07:27:59;6.00;;;4.05;;
30617;SDS011;17384;51.214;9.202;2023-08-06T07:30:27;9.05;;;4.90;;
30617;SDS011;17384;51.214;9.202;2023-08-06T07:32:56;8.70;;;4.72;;
30617;SDS011;17384;51.214;9.202;2023-08-06T07:35:22;6.88;;;4.68;;
30617;SDS011;17384;51.214;9.202;2023-08-06T07:37:48;10.60;;;4.90;;
30617;SDS011;17384;51.214;9.202;2023-08-06T07:40:13;10.50;;;4.68;;
30617;SDS011;17384;51.214;9.202;2023-08-06T07:42:39;8.48;;;4.93;;
30617;SDS011;17384;51.214;9.202;2023-08-06T07:45:04;7.53;;;4.20;;
30617;SDS011;17384;51.214;9.202;2023-08-06T07:47:30;5.28;;;4.70;;
30617;SDS011;17384;51.214;9.202;2023-08-06T07:49:56;6.38;;;4.05;;
30617;SDS011;17384;51.214;9.202;2023-08-06T07:52:21;10.90;;;4.55;;
30617;SDS011;17384;51.214;9.202;2023-08-06T07:54:46;5.97;;;4.22;;
30617;SDS011;17384;51.214;9.202;2023-08-06T07:57:12;11.30;;;3.78;;
30617;SDS011;17384;51.214;9.202;2023-08-06T07:59:39;6.45;;;3.47;;
30617;SDS011;17384;51.214;9.202;2023-08-06T08:02:05;7.40;;;3.42;;
30617;SDS011;17384;51.214;9.202;2023-08-06T08:04:30;6.15;;;2.90;;
30617;SDS011;17384;51.214;9.202;2023-08-06T08:06:56;6.43;;;3.47;;
30617;SDS011;17384;51.214;9.202;2023-08-06T08:09:21;5.07;;;3.75;;
30617;SDS011;17384;51.214;9.202;2023-08-06T08:11:47;5.03;;;3.45;;
30617;SDS011;17384;51.214;9.202;2023-08-06T08:14:12;8.65;;;3.47;;
30617;SDS011;17384;51.214;9.202;2023-08-06T08:16:38;7.28;;;3.80;;
30617;SDS011;17384;51.214;9.202;2023-08-06T08:19:03;7.80;;;3.97;;
30617;SDS011;17384;51.214;9.202;2023-08-06T08:21:29;9.85;;;3.45;;
30617;SDS011;17384;51.214;9.202;2023-08-06T08:23:54;5.60;;;3.60;;
30617;SDS011;17384;51.214;9.202;2023-08-06T08:26:20;6.47;;;3.85;;
30617;SDS011;17384;51.214;9.202;2023-08-06T08:28:45;7.40;;;3.20;;
30617;SDS011;17384;51.214;9.202;2023-08-06T08:31:11;5.45;;;3.38;;
30617;SDS011;17384;51.214;9.202;2023-08-06T08:33:39;10.18;;;3.20;;
30617;SDS011;17384;51.214;9.202;2023-08-06T08:36:05;3.95;;;2.83;;
30617;SDS011;17384;51.214;9.202;2023-08-06T08:38:30;5.45;;;3.38;;
30617;SDS011;17384;51.214;9.202;2023-08-06T08:40:55;6.93;;;3.65;;
30617;SDS011;17384;51.214;9.202;2023-08-06T08:43:21;4.68;;;3.30;;
30617;SDS011;17384;51.214;9.202;2023-08-06T08:45:51;4.72;;;3.20;;
30617;SDS011;17384;51.214;9.202;2023-08-06T08:48:20;8.30;;;2.90;;
30617;SDS011;17384;51.214;9.202;2023-08-06T08:50:47;5.57;;;3.00;;
30617;SDS011;17384;51.214;9.202;2023-08-06T08:53:14;5.97;;;2.30;;
30617;SDS011;17384;51.214;9.202;2023-08-06T08:55:41;4.32;;;2.38;;
30617;SDS011;17384;51.214;9.202;2023-08-06T08:58:08;4.15;;;1.92;;
30617;SDS011;17384;51.214;9.202;2023-08-06T09:00:34;5.30;;;2.70;;
30617;SDS011;17384;51.214;9.202;2023-08-06T09:03:00;6.85;;;2.38;;
30617;SDS011;17384;51.214;9.202;2023-08-06T09:05:28;4.63;;;2.75;;
30617;SDS011;17384;51.214;9.202;2023-08-06T09:07:56;5.30;;;2.13;;
30617;SDS011;17384;51.214;9.202;2023-08-06T09:10:28;8.70;;;3.05;;
30617;SDS011;17384;51.214;9.202;2023-08-06T09:12:54;5.30;;;2.42;;
30617;SDS011;17384;51.214;9.202;2023-08-06T09:15:23;3.90;;;2.05;;
30617;SDS011;17384;51.214;9.202;2023-08-06T09:17:50;6.05;;;2.35;;
30617;SDS011;17384;51.214;9.202;2023-08-06T09:20:16;4.93;;;2.03;;
30617;SDS011;17384;51.214;9.202;2023-08-06T09:22:42;3.97;;;2.10;;
30617;SDS011;17384;51.214;9.202;2023-08-06T09:25:09;7.68;;;2.75;;
30617;SDS011;17384;51.214;9.202;2023-08-06T09:27:37;4.25;;;2.67;;
30617;SDS011;17384;51.214;9.202;2023-08-06T09:30:03;4.53;;;2.72;;
30617;SDS011;17384;51.214;9.202;2023-08-06T09:32:44;8.93;;;3.83;;
30617;SDS011;17384;51.214;9.202;2023-08-06T09:35:22;8.15;;;2.55;;
30617;SDS011;17384;51.214;9.202;2023-08-06T09:37:47;3.10;;;2.20;;
30617;SDS011;17384;51.214;9.202;2023-08-06T09:40:29;4.88;;;2.63;;
30617;SDS011;17384;51.214;9.202;2023-08-06T09:42:57;4.25;;;2.30;;
30617;SDS011;17384;51.214;9.202;2023-08-06T09:45:23;9.15;;;2.30;;
30617;SDS011;17384;51.214;9.202;2023-08-06T09:47:55;3.47;;;2.08;;
30617;SDS011;17384;51.214;9.202;2023-08-06T09:50:21;3.25;;;1.88;;
30617;SDS011;17384;51.214;9.202;2023-08-06T09:52:47;4.55;;;2.03;;
30617;SDS011;17384;51.214;9.202;2023-08-06T09:55:15;2.80;;;1.92;;
30617;SDS011;17384;51.214;9.202;2023-08-06T09:57:41;3.42;;;1.70;;
30617;SDS011;17384;51.214;9.202;2023-08-06T10:00:08;3.78;;;1.45;;
30617;SDS011;17384;51.214;9.202;2023-08-06T10:02:39;8.10;;;1.75;;
30617;SDS011;17384;51.214;9.202;2023-08-06T10:05:08;7.43;;;1.88;;
30617;SDS011;17384;51.214;9.202;2023-08-06T10:07:34;4.03;;;1.70;;
30617;SDS011;17384;51.214;9.202;2023-08-06T10:10:01;2.65;;;1.42;;
30617;SDS011;17384;51.214;9.202;2023-08-06T10:12:32;3.53;;;1.45;;
30617;SDS011;17384;51.214;9.202;2023-08-06T10:15:01;5.77;;;2.03;;
30617;SDS011;17384;51.214;9.202;2023-08-06T10:17:31;3.15;;;1.40;;
30617;SDS011;17384;51.214;9.202;2023-08-06T10:19:58;2.25;;;1.00;;
30617;SDS011;17384;51.214;9.202;2023-08-06T10:22:24;4.13;;;1.60;;
30617;SDS011;17384;51.214;9.202;2023-08-06T10:24:53;3.85;;;1.50;;
30617;SDS011;17384;51.214;9.202;2023-08-06T10:27:31;2.95;;;1.13;;
30617;SDS011;17384;51.214;9.202;2023-08-06T10:32:49;4.65;;;1.27;;
30617;SDS011;17384;51.214;9.202;2023-08-06T10:38:11;1.38;;;0.95;;
30617;SDS011;17384;51.214;9.202;2023-08-06T10:43:26;3.28;;;1.55;;
30617;SDS011;17384;51.214;9.202;2023-08-06T10:45:53;2.35;;;1.05;;
30617;SDS011;17384;51.214;9.202;2023-08-06T10:48:29;2.60;;;1.02;;
30617;SDS011;17384;51.214;9.202;2023-08-06T10:51:02;4.63;;;1.45;;
30617;SDS011;17384;51.214;9.202;2023-08-06T10:53:28;1.50;;;1.25;;
30617;SDS011;17384;51.214;9.202;2023-08-06T10:55:54;6.40;;;1.80;;
30617;SDS011;17384;51.214;9.202;2023-08-06T11:00:47;8.85;;;1.42;;
30617;SDS011;17384;51.214;9.202;2023-08-06T11:03:12;2.72;;;1.70;;
30617;SDS011;17384;51.214;9.202;2023-08-06T11:05:39;4.35;;;1.60;;
30617;SDS011;17384;51.214;9.202;2023-08-06T11:08:05;6.97;;;1.17;;
30617;SDS011;17384;51.214;9.202;2023-08-06T11:10:32;1.75;;;1.15;;
30617;SDS011;17384;51.214;9.202;2023-08-06T11:13:02;2.92;;;1.33;;
30617;SDS011;17384;51.214;9.202;2023-08-06T11:15:29;3.28;;;1.25;;
30617;SDS011;17384;51.214;9.202;2023-08-06T11:17:56;2.28;;;1.15;;
30617;SDS011;17384;51.214;9.202;2023-08-06T11:20:21;3.90;;;1.30;;
30617;SDS011;17384;51.214;9.202;2023-08-06T11:22:47;1.95;;;1.30;;
30617;SDS011;17384;51.214;9.202;2023-08-06T11:25:13;2.78;;;1.35;;
30617;SDS011;17384;51.214;9.202;2023-08-06T11:27:38;4.97;;;1.50;;
30617;SDS011;17384;51.214;9.202;2023-08-06T11:30:04;2.80;;;1.50;;
30617;SDS011;17384;51.214;9.202;2023-08-06T11:32:30;4.03;;;1.63;;
30617;SDS011;17384;51.214;9.202;2023-08-06T11:34:55;5.72;;;1.35;;
30617;SDS011;17384;51.214;9.202;2023-08-06T11:37:21;2.22;;;1.48;;
30617;SDS011;17384;51.214;9.202;2023-08-06T11:39:49;1.80;;;1.20;;
30617;SDS011;17384;51.214;9.202;2023-08-06T11:42:15;1.88;;;1.30;;
30617;SDS011;17384;51.214;9.202;2023-08-06T11:44:40;1.58;;;1.40;;
30617;SDS011;17384;51.214;9.202;2023-08-06T11:47:12;2.22;;;1.27;;
30617;SDS011;17384;51.214;9.202;2023-08-06T11:49:50;2.15;;;1.08;;
30617;SDS011;17384;51.214;9.202;2023-08-06T11:52:19;4.85;;;1.58;;
30617;SDS011;17384;51.214;9.202;2023-08-06T11:54:48;2.70;;;1.52;;
30617;SDS011;17384;51.214;9.202;2023-08-06T11:57:24;3.83;;;1.73;;
30617;SDS011;17384;51.214;9.202;2023-08-06T11:59:49;4.13;;;1.35;;
30617;SDS011;17384;51.214;9.202;2023-08-06T12:02:15;2.35;;;1.30;;
30617;SDS011;17384;51.214;9.202;2023-08-06T12:05:00;6.60;;;1.50;;
30617;SDS011;17384;51.214;9.202;2023-08-06T12:07:30;2.97;;;1.65;;
30617;SDS011;17384;51.214;9.202;2023-08-06T12:10:02;4.60;;;1.60;;
30617;SDS011;17384;51.214;9.202;2023-08-06T12:12:28;2.42;;;1.73;;
30617;SDS011;17384;51.214;9.202;2023-08-06T12:14:54;4.60;;;1.70;;
30617;SDS011;17384;51.214;9.202;2023-08-06T12:17:19;5.03;;;1.63;;
30617;SDS011;17384;51.214;9.202;2023-08-06T12:19:45;4.13;;;1.75;;
30617;SDS011;17384;51.214;9.202;2023-08-06T12:22:14;3.53;;;2.00;;
30617;SDS011;17384;51.214;9.202;2023-08-06T12:24:40;3.75;;;1.95;;
30617;SDS011;17384;51.214;9.202;2023-08-06T12:27:06;3.35;;;1.70;;
30617;SDS011;17384;51.214;9.202;2023-08-06T12:29:32;5.80;;;1.50;;
30617;SDS011;17384;51.214;9.202;2023-08-06T12:31:58;4.07;;;1.50;;
30617;SDS011;17384;51.214;9.202;2023-08-06T12:34:23;2.25;;;1.35;;
30617;SDS011;17384;51.214;9.202;2023-08-06T12:36:49;2.03;;;1.67;;
30617;SDS011;17384;51.214;9.202;2023-08-06T12:39:14;1.70;;;1.38;;
30617;SDS011;17384;51.214;9.202;2023-08-06T12:41:39;7.13;;;1.60;;
30617;SDS011;17384;51.214;9.202;2023-08-06T12:44:05;2.08;;;1.67;;
30617;SDS011;17384;51.214;9.202;2023-08-06T12:46:31;3.45;;;1.45;;
30617;SDS011;17384;51.214;9.202;2023-08-06T12:48:56;1.50;;;1.30;;
30617;SDS011;17384;51.214;9.202;2023-08-06T12:51:23;2.95;;;1.15;;
30617;SDS011;17384;51.214;9.202;2023-08-06T12:53:49;2.95;;;1.20;;
30617;SDS011;17384;51.214;9.202;2023-08-06T12:56:15;1.90;;;1.40;;
30617;SDS011;17384;51.214;9.202;2023-08-06T12:58:41;3.15;;;1.45;;
30617;SDS011;17384;51.214;9.202;2023-08-06T13:01:07;1.80;;;1.05;;
30617;SDS011;17384;51.214;9.202;2023-08-06T13:03:33;1.45;;;1.10;;
30617;SDS011;17384;51.214;9.202;2023-08-06T13:05:58;2.83;;;1.52;;
30617;SDS011;17384;51.214;9.202;2023-08-06T13:08:24;2.65;;;1.30;;
30617;SDS011;17384;51.214;9.202;2023-08-06T13:10:49;2.22;;;1.30;;
30617;SDS011;17384;51.214;9.202;2023-08-06T13:13:15;1.42;;;1.17;;
30617;SDS011;17384;51.214;9.202;2023-08-06T13:15:40;3.67;;;1.40;;
30617;SDS011;17384;51.214;9.202;2023-08-06T13:18:06;1.00;;;0.90;;
30617;SDS011;17384;51.214;9.202;2023-08-06T13:20:31;3.35;;;1.40;;
30617;SDS011;17384;51.214;9.202;2023-08-06T13:22:58;4.32;;;1.77;;
30617;SDS011;17384;51.214;9.202;2023-08-06T13:25:26;3.85;;;1.70;;
30617;SDS011;17384;51.214;9.202;2023-08-06T13:27:52;2.47;;;1.73;;
30617;SDS011;17384;51.214;9.202;2023-08-06T13:30:17;7.13;;;2.40;;
30617;SDS011;17384;51.214;9.202;2023-08-06T13:32:43;2.05;;;1.80;;
30617;SDS011;17384;51.214;9.202;2023-08-06T13:35:09;2.53;;;1.83;;
30617;SDS011;17384;51.214;9.202;2023-08-06T13:37:35;2.97;;;1.83;;
30617;SDS011;17384;51.214;9.202;2023-08-06T13:40:00;8.45;;;2.40;;
30617;SDS011;17384;51.214;9.202;2023-08-06T13:42:26;5.28;;;2.28;;
30617;SDS011;17384;51.214;9.202;2023-08-06T13:44:51;4.97;;;2.38;;
30617;SDS011;17384;51.214;9.202;2023-08-06T13:47:17;5.57;;;2.78;;
30617;SDS011;17384;51.214;9.202;2023-08-06T13:49:43;5.85;;;2.70;;
30617;SDS011;17384;51.214;9.202;2023-08-06T13:52:08;6.20;;;1.95;;
30617;SDS011;17384;51.214;9.202;2023-08-06T13:54:34;6.32;;;2.55;;
30617;SDS011;17384;51.214;9.202;2023-08-06T13:56:59;7.78;;;2.58;;
30617;SDS011;17384;51.214;9.202;2023-08-06T13:59:25;12.05;;;2.47;;
30617;SDS011;17384;51.214;9.202;2023-08-06T14:01:50;5.38;;;2.15;;
30617;SDS011;17384;51.214;9.202;2023-08-06T14:04:18;4.22;;;2.00;;
30617;SDS011;17384;51.214;9.202;2023-08-06T14:06:43;4.22;;;2.00;;
30617;SDS011;17384;51.214;9.202;2023-08-06T14:09:09;6.68;;;2.05;;
30617;SDS011;17384;51.214;9.202;2023-08-06T14:11:37;5.93;;;1.77;;
30617;SDS011;17384;51.214;9.202;2023-08-06T14:14:03;3.50;;;1.83;;
30617;SDS011;17384;51.214;9.202;2023-08-06T14:16:28;3.05;;;1.70;;
30617;SDS011;17384;51.214;9.202;2023-08-06T14:18:53;4.35;;;2.70;;
30617;SDS011;17384;51.214;9.202;2023-08-06T14:21:19;2.85;;;1.80;;
30617;SDS011;17384;51.214;9.202;2023-08-06T14:23:44;4.30;;;1.88;;
30617;SDS011;17384;51.214;9.202;2023-08-06T14:26:10;4.82;;;2.00;;
30617;SDS011;17384;51.214;9.202;2023-08-06T14:28:36;7.13;;;2.25;;
30617;SDS011;17384;51.214;9.202;2023-08-06T14:31:01;3.33;;;1.85;;
30617;SDS011;17384;51.214;9.202;2023-08-06T14:33:27;3.38;;;2.17;;
30617;SDS011;17384;51.214;9.202;2023-08-06T14:35:52;4.40;;;2.72;;
30617;SDS011;17384;51.214;9.202;2023-08-06T14:38:18;4.05;;;2.63;;
30617;SDS011;17384;51.214;9.202;2023-08-06T14:40:43;8.50;;;2.72;;
30617;SDS011;17384;51.214;9.202;2023-08-06T14:43:09;5.22;;;3.25;;
30617;SDS011;17384;51.214;9.202;2023-08-06T14:45:38;4.60;;;2.20;;
30617;SDS011;17384;51.214;9.202;2023-08-06T14:48:04;5.38;;;2.80;;
30617;SDS011;17384;51.214;9.202;2023-08-06T14:50:31;7.55;;;2.53;;
30617;SDS011;17384;51.214;9.202;2023-08-06T14:52:56;3.47;;;2.47;;
30617;SDS011;17384;51.214;9.202;2023-08-06T14:55:25;3.90;;;2.70;;